Pall Mall, Tennessee
Current Conditions -  °F | °C
As of 10:56 PM on Friday 28 Nov 2014 (Local Time) from KEKQ Reporting Station
Clear Clear  
Wind Chill: 34°   Ceiling: Unl
Heat Index: 40°   Visibility: 10mi
Dew Point: 21°   Wind: 8mph
Humidity: 47%   Direction: 180°S
Pressure: 30.15"   Gusts: NA
Location:  36.55°N, 84.97°W
Report Text: KEKQ 290456Z AUTO 18007KT 10SM CLR 04/M06 A3015 RMK AO2 T00441061 400661027 SLP218
Loading
Personal Weather Stations






























Interactive Weather Map New forecast layout! Learn more

10-Day Weather Forecast

Advertisements
Track Severe Weather on mobile